sensor_id;sensor_type;location;lat;lon;timestamp;temperature;humidity
24678;DHT22;12800;53.094;8.778;2023-05-18T00:02:13;10.30;61.90
24678;DHT22;12800;53.094;8.778;2023-05-18T00:04:40;10.30;61.70
24678;DHT22;12800;53.094;8.778;2023-05-18T00:07:06;10.30;61.90
24678;DHT22;12800;53.094;8.778;2023-05-18T00:09:34;10.30;62.00
24678;DHT22;12800;53.094;8.778;2023-05-18T00:12:00;10.30;62.10
24678;DHT22;12800;53.094;8.778;2023-05-18T00:14:26;10.30;62.20
24678;DHT22;12800;53.094;8.778;2023-05-18T00:16:52;10.30;62.20
24678;DHT22;12800;53.094;8.778;2023-05-18T00:19:19;10.20;62.00
24678;DHT22;12800;53.094;8.778;2023-05-18T00:21:45;10.30;62.20
24678;DHT22;12800;53.094;8.778;2023-05-18T00:24:13;10.20;62.20
24678;DHT22;12800;53.094;8.778;2023-05-18T00:26:40;10.20;62.20
24678;DHT22;12800;53.094;8.778;2023-05-18T00:29:06;10.20;62.20
24678;DHT22;12800;53.094;8.778;2023-05-18T00:31:32;10.20;62.20
24678;DHT22;12800;53.094;8.778;2023-05-18T00:34:03;10.20;62.20
24678;DHT22;12800;53.094;8.778;2023-05-18T00:36:29;10.20;62.20
24678;DHT22;12800;53.094;8.778;2023-05-18T00:38:56;10.20;62.20
24678;DHT22;12800;53.094;8.778;2023-05-18T00:41:21;10.20;62.10
24678;DHT22;12800;53.094;8.778;2023-05-18T00:43:48;10.20;62.10
24678;DHT22;12800;53.094;8.778;2023-05-18T00:46:13;10.20;62.20
24678;DHT22;12800;53.094;8.778;2023-05-18T00:48:40;10.20;62.20
24678;DHT22;12800;53.094;8.778;2023-05-18T00:51:06;10.20;62.20
24678;DHT22;12800;53.094;8.778;2023-05-18T00:53:32;10.20;62.30
24678;DHT22;12800;53.094;8.778;2023-05-18T00:55:57;10.20;62.40
24678;DHT22;12800;53.094;8.778;2023-05-18T00:58:24;10.20;62.30
24678;DHT22;12800;53.094;8.778;2023-05-18T01:00:51;10.20;62.40
24678;DHT22;12800;53.094;8.778;2023-05-18T01:03:17;10.30;62.60
24678;DHT22;12800;53.094;8.778;2023-05-18T01:05:45;10.20;62.70
24678;DHT22;12800;53.094;8.778;2023-05-18T01:08:15;10.20;62.50
24678;DHT22;12800;53.094;8.778;2023-05-18T01:10:42;10.20;62.10
24678;DHT22;12800;53.094;8.778;2023-05-18T01:13:17;10.20;62.10
24678;DHT22;12800;53.094;8.778;2023-05-18T01:15:48;10.20;62.00
24678;DHT22;12800;53.094;8.778;2023-05-18T01:18:49;10.20;61.70
24678;DHT22;12800;53.094;8.778;2023-05-18T01:26:51;10.20;62.00
24678;DHT22;12800;53.094;8.778;2023-05-18T01:29:23;10.20;61.90
24678;DHT22;12800;53.094;8.778;2023-05-18T01:31:49;10.20;62.00
24678;DHT22;12800;53.094;8.778;2023-05-18T01:34:15;10.20;62.00
24678;DHT22;12800;53.094;8.778;2023-05-18T01:36:41;10.20;62.10
24678;DHT22;12800;53.094;8.778;2023-05-18T01:39:07;10.20;62.00
24678;DHT22;12800;53.094;8.778;2023-05-18T01:41:36;10.20;61.90
24678;DHT22;12800;53.094;8.778;2023-05-18T01:49:50;10.10;62.30
24678;DHT22;12800;53.094;8.778;2023-05-18T01:52:22;10.10;62.30
24678;DHT22;12800;53.094;8.778;2023-05-18T01:54:55;10.10;62.10
24678;DHT22;12800;53.094;8.778;2023-05-18T01:57:23;10.10;62.10
24678;DHT22;12800;53.094;8.778;2023-05-18T01:59:51;10.20;62.20
24678;DHT22;12800;53.094;8.778;2023-05-18T02:02:18;10.10;62.10
24678;DHT22;12800;53.094;8.778;2023-05-18T02:04:44;10.20;62.90
24678;DHT22;12800;53.094;8.778;2023-05-18T02:07:10;10.20;62.00
24678;DHT22;12800;53.094;8.778;2023-05-18T02:09:35;10.20;62.00
24678;DHT22;12800;53.094;8.778;2023-05-18T02:12:01;10.20;62.00
24678;DHT22;12800;53.094;8.778;2023-05-18T02:14:27;10.20;62.00
24678;DHT22;12800;53.094;8.778;2023-05-18T02:16:52;10.20;62.10
24678;DHT22;12800;53.094;8.778;2023-05-18T02:19:19;10.20;62.30
24678;DHT22;12800;53.094;8.778;2023-05-18T02:21:44;10.20;61.90
24678;DHT22;12800;53.094;8.778;2023-05-18T02:24:10;10.20;61.70
24678;DHT22;12800;53.094;8.778;2023-05-18T02:26:37;10.20;61.60
24678;DHT22;12800;53.094;8.778;2023-05-18T02:29:03;10.20;61.50
24678;DHT22;12800;53.094;8.778;2023-05-18T02:31:31;10.20;61.40
24678;DHT22;12800;53.094;8.778;2023-05-18T02:33:56;10.20;61.50
24678;DHT22;12800;53.094;8.778;2023-05-18T02:36:22;10.20;61.30
24678;DHT22;12800;53.094;8.778;2023-05-18T02:38:48;10.20;61.00
24678;DHT22;12800;53.094;8.778;2023-05-18T02:41:14;10.20;60.70
24678;DHT22;12800;53.094;8.778;2023-05-18T02:43:39;10.30;60.70
24678;DHT22;12800;53.094;8.778;2023-05-18T02:46:05;10.30;60.90
24678;DHT22;12800;53.094;8.778;2023-05-18T02:48:31;10.20;60.90
24678;DHT22;12800;53.094;8.778;2023-05-18T02:50:58;10.30;60.90
24678;DHT22;12800;53.094;8.778;2023-05-18T02:53:23;10.30;60.80
24678;DHT22;12800;53.094;8.778;2023-05-18T02:55:53;10.30;61.00
24678;DHT22;12800;53.094;8.778;2023-05-18T02:58:21;10.30;60.90
24678;DHT22;12800;53.094;8.778;2023-05-18T03:00:50;10.30;61.00
24678;DHT22;12800;53.094;8.778;2023-05-18T03:03:17;10.30;60.80
24678;DHT22;12800;53.094;8.778;2023-05-18T03:05:43;10.30;60.90
24678;DHT22;12800;53.094;8.778;2023-05-18T03:08:09;10.30;60.90
24678;DHT22;12800;53.094;8.778;2023-05-18T03:10:35;10.30;61.10
24678;DHT22;12800;53.094;8.778;2023-05-18T03:13:01;10.30;61.40
24678;DHT22;12800;53.094;8.778;2023-05-18T03:15:27;10.30;61.70
24678;DHT22;12800;53.094;8.778;2023-05-18T03:17:55;10.30;61.50
24678;DHT22;12800;53.094;8.778;2023-05-18T03:20:24;10.30;61.50
24678;DHT22;12800;53.094;8.778;2023-05-18T03:22:50;10.40;61.50
24678;DHT22;12800;53.094;8.778;2023-05-18T03:25:15;10.40;61.70
24678;DHT22;12800;53.094;8.778;2023-05-18T03:27:41;10.30;61.60
24678;DHT22;12800;53.094;8.778;2023-05-18T03:30:07;10.30;61.50
24678;DHT22;12800;53.094;8.778;2023-05-18T03:32:33;10.30;61.70
24678;DHT22;12800;53.094;8.778;2023-05-18T03:35:01;10.30;61.40
24678;DHT22;12800;53.094;8.778;2023-05-18T03:37:27;10.30;61.50
24678;DHT22;12800;53.094;8.778;2023-05-18T03:39:57;10.30;61.30
24678;DHT22;12800;53.094;8.778;2023-05-18T03:42:23;10.30;61.30
24678;DHT22;12800;53.094;8.778;2023-05-18T03:44:50;10.30;61.50
24678;DHT22;12800;53.094;8.778;2023-05-18T03:47:15;10.30;61.40
24678;DHT22;12800;53.094;8.778;2023-05-18T03:49:41;10.30;61.10
24678;DHT22;12800;53.094;8.778;2023-05-18T03:52:07;10.30;61.00
24678;DHT22;12800;53.094;8.778;2023-05-18T03:54:33;10.40;61.00
24678;DHT22;12800;53.094;8.778;2023-05-18T03:56:59;10.40;60.70
24678;DHT22;12800;53.094;8.778;2023-05-18T03:59:25;10.40;60.50
24678;DHT22;12800;53.094;8.778;2023-05-18T04:01:50;10.40;60.70
24678;DHT22;12800;53.094;8.778;2023-05-18T04:04:19;10.40;60.70
24678;DHT22;12800;53.094;8.778;2023-05-18T04:06:48;10.40;60.60
24678;DHT22;12800;53.094;8.778;2023-05-18T04:09:16;10.40;60.60
24678;DHT22;12800;53.094;8.778;2023-05-18T04:11:43;10.40;60.60
24678;DHT22;12800;53.094;8.778;2023-05-18T04:14:09;10.50;60.60
24678;DHT22;12800;53.094;8.778;2023-05-18T04:16:35;10.50;60.60
24678;DHT22;12800;53.094;8.778;2023-05-18T04:19:00;10.50;60.60
24678;DHT22;12800;53.094;8.778;2023-05-18T04:21:28;10.50;60.60
24678;DHT22;12800;53.094;8.778;2023-05-18T04:24:01;10.50;60.70
24678;DHT22;12800;53.094;8.778;2023-05-18T04:26:33;10.50;60.50
24678;DHT22;12800;53.094;8.778;2023-05-18T04:29:01;10.50;60.60
24678;DHT22;12800;53.094;8.778;2023-05-18T04:31:27;10.50;60.70
24678;DHT22;12800;53.094;8.778;2023-05-18T04:33:54;10.50;60.70
24678;DHT22;12800;53.094;8.778;2023-05-18T04:36:20;10.50;61.50
24678;DHT22;12800;53.094;8.778;2023-05-18T04:38:50;10.50;60.90
24678;DHT22;12800;53.094;8.778;2023-05-18T04:41:16;10.60;60.90
24678;DHT22;12800;53.094;8.778;2023-05-18T04:43:45;10.60;60.60
24678;DHT22;12800;53.094;8.778;2023-05-18T04:46:11;10.60;60.70
24678;DHT22;12800;53.094;8.778;2023-05-18T04:48:38;10.60;60.40
24678;DHT22;12800;53.094;8.778;2023-05-18T04:51:04;10.60;60.30
24678;DHT22;12800;53.094;8.778;2023-05-18T04:53:30;10.70;60.60
24678;DHT22;12800;53.094;8.778;2023-05-18T04:55:58;10.70;60.40
24678;DHT22;12800;53.094;8.778;2023-05-18T04:58:25;10.70;60.60
24678;DHT22;12800;53.094;8.778;2023-05-18T05:00:52;10.80;60.50
24678;DHT22;12800;53.094;8.778;2023-05-18T05:03:18;10.80;60.30
24678;DHT22;12800;53.094;8.778;2023-05-18T05:05:44;10.80;59.80
24678;DHT22;12800;53.094;8.778;2023-05-18T05:08:09;10.80;59.50
24678;DHT22;12800;53.094;8.778;2023-05-18T05:10:36;10.80;59.30
24678;DHT22;12800;53.094;8.778;2023-05-18T05:13:02;10.80;59.70
24678;DHT22;12800;53.094;8.778;2023-05-18T05:15:28;10.80;60.30
24678;DHT22;12800;53.094;8.778;2023-05-18T05:17:53;10.90;60.20
24678;DHT22;12800;53.094;8.778;2023-05-18T05:20:19;10.90;59.60
24678;DHT22;12800;53.094;8.778;2023-05-18T05:22:45;10.90;59.60
24678;DHT22;12800;53.094;8.778;2023-05-18T05:25:11;10.90;59.00
24678;DHT22;12800;53.094;8.778;2023-05-18T05:27:36;10.90;58.80
24678;DHT22;12800;53.094;8.778;2023-05-18T05:30:02;10.90;58.70
24678;DHT22;12800;53.094;8.778;2023-05-18T05:32:29;10.90;58.20
24678;DHT22;12800;53.094;8.778;2023-05-18T05:34:54;11.00;58.40
24678;DHT22;12800;53.094;8.778;2023-05-18T05:37:20;11.00;58.40
24678;DHT22;12800;53.094;8.778;2023-05-18T05:39:46;11.00;58.30
24678;DHT22;12800;53.094;8.778;2023-05-18T05:42:12;11.00;58.40
24678;DHT22;12800;53.094;8.778;2023-05-18T05:44:38;11.10;58.60
24678;DHT22;12800;53.094;8.778;2023-05-18T05:47:05;11.10;59.10
24678;DHT22;12800;53.094;8.778;2023-05-18T05:49:31;11.20;58.30
24678;DHT22;12800;53.094;8.778;2023-05-18T05:51:56;11.20;58.10
24678;DHT22;12800;53.094;8.778;2023-05-18T05:54:22;11.30;58.10
24678;DHT22;12800;53.094;8.778;2023-05-18T05:56:48;11.30;57.90
24678;DHT22;12800;53.094;8.778;2023-05-18T05:59:14;11.40;57.90
24678;DHT22;12800;53.094;8.778;2023-05-18T06:01:39;11.40;57.70
24678;DHT22;12800;53.094;8.778;2023-05-18T06:04:05;11.40;57.30
24678;DHT22;12800;53.094;8.778;2023-05-18T06:06:36;11.40;57.10
24678;DHT22;12800;53.094;8.778;2023-05-18T06:09:02;11.40;56.90
24678;DHT22;12800;53.094;8.778;2023-05-18T06:11:29;11.50;56.90
24678;DHT22;12800;53.094;8.778;2023-05-18T06:13:54;11.50;56.90
24678;DHT22;12800;53.094;8.778;2023-05-18T06:16:20;11.60;56.80
24678;DHT22;12800;53.094;8.778;2023-05-18T06:18:46;11.60;56.60
24678;DHT22;12800;53.094;8.778;2023-05-18T06:21:13;11.60;56.70
24678;DHT22;12800;53.094;8.778;2023-05-18T06:23:39;11.70;56.60
24678;DHT22;12800;53.094;8.778;2023-05-18T06:26:05;11.70;56.60
24678;DHT22;12800;53.094;8.778;2023-05-18T06:28:31;11.70;56.50
24678;DHT22;12800;53.094;8.778;2023-05-18T06:30:57;11.80;56.40
24678;DHT22;12800;53.094;8.778;2023-05-18T06:33:23;11.80;56.50
24678;DHT22;12800;53.094;8.778;2023-05-18T06:35:48;11.90;56.40
24678;DHT22;12800;53.094;8.778;2023-05-18T06:38:14;12.00;56.60
24678;DHT22;12800;53.094;8.778;2023-05-18T06:40:40;12.00;56.40
24678;DHT22;12800;53.094;8.778;2023-05-18T06:43:05;12.00;56.00
24678;DHT22;12800;53.094;8.778;2023-05-18T06:45:31;12.10;56.00
24678;DHT22;12800;53.094;8.778;2023-05-18T06:47:56;12.10;56.00
24678;DHT22;12800;53.094;8.778;2023-05-18T06:50:22;12.10;56.00
24678;DHT22;12800;53.094;8.778;2023-05-18T06:52:48;12.20;56.00
24678;DHT22;12800;53.094;8.778;2023-05-18T06:55:14;12.20;55.80
24678;DHT22;12800;53.094;8.778;2023-05-18T06:57:39;12.30;55.70
24678;DHT22;12800;53.094;8.778;2023-05-18T07:00:07;12.30;56.50
24678;DHT22;12800;53.094;8.778;2023-05-18T07:02:33;12.30;55.60
24678;DHT22;12800;53.094;8.778;2023-05-18T07:04:59;12.30;55.70
24678;DHT22;12800;53.094;8.778;2023-05-18T07:07:25;12.30;55.20
24678;DHT22;12800;53.094;8.778;2023-05-18T07:09:51;12.40;55.30
24678;DHT22;12800;53.094;8.778;2023-05-18T07:12:19;12.40;55.20
24678;DHT22;12800;53.094;8.778;2023-05-18T07:14:45;12.40;55.20
24678;DHT22;12800;53.094;8.778;2023-05-18T07:17:10;12.40;55.10
24678;DHT22;12800;53.094;8.778;2023-05-18T07:19:36;12.40;55.20
24678;DHT22;12800;53.094;8.778;2023-05-18T07:22:02;12.40;55.30
24678;DHT22;12800;53.094;8.778;2023-05-18T07:24:29;12.40;55.30
24678;DHT22;12800;53.094;8.778;2023-05-18T07:26:54;12.50;55.50
24678;DHT22;12800;53.094;8.778;2023-05-18T07:29:20;12.50;55.10
24678;DHT22;12800;53.094;8.778;2023-05-18T07:31:46;12.50;55.10
24678;DHT22;12800;53.094;8.778;2023-05-18T07:34:12;12.50;55.10
24678;DHT22;12800;53.094;8.778;2023-05-18T07:36:37;12.50;55.30
24678;DHT22;12800;53.094;8.778;2023-05-18T07:39:03;12.50;55.40
24678;DHT22;12800;53.094;8.778;2023-05-18T07:41:29;12.50;55.30
24678;DHT22;12800;53.094;8.778;2023-05-18T07:43:56;12.50;55.10
24678;DHT22;12800;53.094;8.778;2023-05-18T07:46:21;12.50;55.30
24678;DHT22;12800;53.094;8.778;2023-05-18T07:48:47;12.60;55.20
24678;DHT22;12800;53.094;8.778;2023-05-18T07:51:13;12.60;55.10
24678;DHT22;12800;53.094;8.778;2023-05-18T07:53:38;12.60;55.10
24678;DHT22;12800;53.094;8.778;2023-05-18T07:56:06;12.70;55.00
24678;DHT22;12800;53.094;8.778;2023-05-18T07:58:34;12.70;54.60
24678;DHT22;12800;53.094;8.778;2023-05-18T08:00:59;12.60;54.70
24678;DHT22;12800;53.094;8.778;2023-05-18T08:03:25;12.70;54.90
24678;DHT22;12800;53.094;8.778;2023-05-18T08:05:51;12.70;54.80
24678;DHT22;12800;53.094;8.778;2023-05-18T08:08:17;12.80;54.70
24678;DHT22;12800;53.094;8.778;2023-05-18T08:10:43;12.90;55.10
24678;DHT22;12800;53.094;8.778;2023-05-18T08:13:08;13.00;55.10
24678;DHT22;12800;53.094;8.778;2023-05-18T08:15:34;13.00;54.80
24678;DHT22;12800;53.094;8.778;2023-05-18T08:18:00;13.00;55.00
24678;DHT22;12800;53.094;8.778;2023-05-18T08:20:26;13.00;54.90
24678;DHT22;12800;53.094;8.778;2023-05-18T08:22:55;13.10;54.90
24678;DHT22;12800;53.094;8.778;2023-05-18T08:25:21;13.10;54.90
24678;DHT22;12800;53.094;8.778;2023-05-18T08:27:48;13.20;54.90
24678;DHT22;12800;53.094;8.778;2023-05-18T08:30:14;13.20;54.80
24678;DHT22;12800;53.094;8.778;2023-05-18T08:32:39;13.30;54.60
24678;DHT22;12800;53.094;8.778;2023-05-18T08:35:06;13.40;54.50
24678;DHT22;12800;53.094;8.778;2023-05-18T08:37:33;13.40;54.40
24678;DHT22;12800;53.094;8.778;2023-05-18T08:39:58;13.40;54.40
24678;DHT22;12800;53.094;8.778;2023-05-18T08:42:39;13.40;54.30
24678;DHT22;12800;53.094;8.778;2023-05-18T08:47:38;13.40;54.10
24678;DHT22;12800;53.094;8.778;2023-05-18T08:50:05;13.50;54.80
24678;DHT22;12800;53.094;8.778;2023-05-18T08:52:35;13.50;54.50
24678;DHT22;12800;53.094;8.778;2023-05-18T08:55:05;13.40;54.20
24678;DHT22;12800;53.094;8.778;2023-05-18T08:57:34;13.40;54.30
24678;DHT22;12800;53.094;8.778;2023-05-18T09:00:00;13.40;54.40
24678;DHT22;12800;53.094;8.778;2023-05-18T09:02:27;13.40;54.50
24678;DHT22;12800;53.094;8.778;2023-05-18T09:04:55;13.40;54.40
24678;DHT22;12800;53.094;8.778;2023-05-18T09:07:22;13.40;54.10
24678;DHT22;12800;53.094;8.778;2023-05-18T09:09:48;13.40;54.70
24678;DHT22;12800;53.094;8.778;2023-05-18T09:12:15;13.40;54.40
24678;DHT22;12800;53.094;8.778;2023-05-18T09:14:42;13.40;54.60
24678;DHT22;12800;53.094;8.778;2023-05-18T09:17:09;13.50;54.70
24678;DHT22;12800;53.094;8.778;2023-05-18T09:19:34;13.50;54.50
24678;DHT22;12800;53.094;8.778;2023-05-18T09:22:00;13.40;54.30
24678;DHT22;12800;53.094;8.778;2023-05-18T09:24:26;13.40;54.30
24678;DHT22;12800;53.094;8.778;2023-05-18T09:26:52;13.30;54.10
24678;DHT22;12800;53.094;8.778;2023-05-18T09:29:19;13.30;53.90
24678;DHT22;12800;53.094;8.778;2023-05-18T09:31:46;13.20;54.20
24678;DHT22;12800;53.094;8.778;2023-05-18T09:34:13;13.20;54.40
24678;DHT22;12800;53.094;8.778;2023-05-18T09:36:39;13.10;54.30
24678;DHT22;12800;53.094;8.778;2023-05-18T09:39:11;13.10;54.60
24678;DHT22;12800;53.094;8.778;2023-05-18T09:41:38;13.10;54.80
24678;DHT22;12800;53.094;8.778;2023-05-18T09:44:07;13.10;54.70
24678;DHT22;12800;53.094;8.778;2023-05-18T09:46:40;13.20;55.00
24678;DHT22;12800;53.094;8.778;2023-05-18T09:49:06;13.20;54.60
24678;DHT22;12800;53.094;8.778;2023-05-18T09:51:37;13.30;54.80
24678;DHT22;12800;53.094;8.778;2023-05-18T09:54:04;13.30;54.50
24678;DHT22;12800;53.094;8.778;2023-05-18T09:56:35;13.30;54.40
24678;DHT22;12800;53.094;8.778;2023-05-18T09:59:14;13.30;54.60
24678;DHT22;12800;53.094;8.778;2023-05-18T10:01:56;13.30;54.40
24678;DHT22;12800;53.094;8.778;2023-05-18T10:04:22;13.40;54.30
24678;DHT22;12800;53.094;8.778;2023-05-18T10:06:58;13.30;54.10
24678;DHT22;12800;53.094;8.778;2023-05-18T10:09:24;13.30;54.00
24678;DHT22;12800;53.094;8.778;2023-05-18T10:11:50;13.30;54.00
24678;DHT22;12800;53.094;8.778;2023-05-18T10:14:15;13.20;54.30
24678;DHT22;12800;53.094;8.778;2023-05-18T10:16:41;13.30;54.10
24678;DHT22;12800;53.094;8.778;2023-05-18T10:19:10;13.20;54.10
24678;DHT22;12800;53.094;8.778;2023-05-18T10:21:37;13.20;54.40
24678;DHT22;12800;53.094;8.778;2023-05-18T10:24:04;13.20;54.20
24678;DHT22;12800;53.094;8.778;2023-05-18T10:26:35;13.20;54.10
24678;DHT22;12800;53.094;8.778;2023-05-18T10:29:03;13.20;54.30
24678;DHT22;12800;53.094;8.778;2023-05-18T10:31:29;13.30;54.10
24678;DHT22;12800;53.094;8.778;2023-05-18T10:33:57;13.40;54.10
24678;DHT22;12800;53.094;8.778;2023-05-18T10:36:24;13.50;54.20
24678;DHT22;12800;53.094;8.778;2023-05-18T10:38:56;13.50;54.30
24678;DHT22;12800;53.094;8.778;2023-05-18T10:41:24;13.60;54.30
24678;DHT22;12800;53.094;8.778;2023-05-18T10:43:51;13.70;54.10
24678;DHT22;12800;53.094;8.778;2023-05-18T10:46:18;13.80;54.10
24678;DHT22;12800;53.094;8.778;2023-05-18T10:48:46;13.80;53.80
24678;DHT22;12800;53.094;8.778;2023-05-18T10:51:14;13.90;53.50
24678;DHT22;12800;53.094;8.778;2023-05-18T10:53:43;14.00;53.80
24678;DHT22;12800;53.094;8.778;2023-05-18T10:56:08;14.20;53.60
24678;DHT22;12800;53.094;8.778;2023-05-18T10:58:36;14.30;53.50
24678;DHT22;12800;53.094;8.778;2023-05-18T11:01:05;14.50;53.60
24678;DHT22;12800;53.094;8.778;2023-05-18T11:03:33;14.60;53.10
24678;DHT22;12800;53.094;8.778;2023-05-18T11:08:33;14.60;52.80
24678;DHT22;12800;53.094;8.778;2023-05-18T11:11:05;14.60;52.40
24678;DHT22;12800;53.094;8.778;2023-05-18T11:13:33;14.60;52.60
24678;DHT22;12800;53.094;8.778;2023-05-18T11:16:03;14.60;52.90
24678;DHT22;12800;53.094;8.778;2023-05-18T11:18:50;14.70;53.00
24678;DHT22;12800;53.094;8.778;2023-05-18T11:26:46;15.00;52.90
24678;DHT22;12800;53.094;8.778;2023-05-18T11:31:52;15.10;52.30
24678;DHT22;12800;53.094;8.778;2023-05-18T11:34:45;15.00;52.50
24678;DHT22;12800;53.094;8.778;2023-05-18T11:37:15;15.00;52.10
24678;DHT22;12800;53.094;8.778;2023-05-18T11:39:41;15.00;52.30
24678;DHT22;12800;53.094;8.778;2023-05-18T11:42:17;15.10;52.50
24678;DHT22;12800;53.094;8.778;2023-05-18T11:44:51;15.20;52.70
24678;DHT22;12800;53.094;8.778;2023-05-18T11:47:17;15.20;52.30
24678;DHT22;12800;53.094;8.778;2023-05-18T11:49:45;15.30;52.30
24678;DHT22;12800;53.094;8.778;2023-05-18T11:54:58;15.30;51.80
24678;DHT22;12800;53.094;8.778;2023-05-18T11:57:47;15.30;51.90
24678;DHT22;12800;53.094;8.778;2023-05-18T12:00:11;15.30;51.70
24678;DHT22;12800;53.094;8.778;2023-05-18T12:02:38;15.40;52.10
24678;DHT22;12800;53.094;8.778;2023-05-18T12:05:08;15.50;51.80
24678;DHT22;12800;53.094;8.778;2023-05-18T12:07:34;15.60;52.10
24678;DHT22;12800;53.094;8.778;2023-05-18T12:10:12;15.60;51.60
24678;DHT22;12800;53.094;8.778;2023-05-18T12:12:39;15.70;51.40
24678;DHT22;12800;53.094;8.778;2023-05-18T12:15:07;15.70;51.30
24678;DHT22;12800;53.094;8.778;2023-05-18T12:17:42;15.70;51.10
24678;DHT22;12800;53.094;8.778;2023-05-18T12:20:10;15.70;50.90
24678;DHT22;12800;53.094;8.778;2023-05-18T12:22:38;15.70;51.20
24678;DHT22;12800;53.094;8.778;2023-05-18T12:25:05;15.70;51.10
24678;DHT22;12800;53.094;8.778;2023-05-18T12:27:39;15.80;51.50
24678;DHT22;12800;53.094;8.778;2023-05-18T12:30:26;15.90;51.20
24678;DHT22;12800;53.094;8.778;2023-05-18T12:32:59;16.00;51.20
24678;DHT22;12800;53.094;8.778;2023-05-18T12:35:28;16.00;50.60
24678;DHT22;12800;53.094;8.778;2023-05-18T12:37:55;16.10;50.60
24678;DHT22;12800;53.094;8.778;2023-05-18T12:40:22;16.10;50.60
24678;DHT22;12800;53.094;8.778;2023-05-18T12:45:18;16.20;50.40
24678;DHT22;12800;53.094;8.778;2023-05-18T12:47:44;16.30;50.60
24678;DHT22;12800;53.094;8.778;2023-05-18T12:50:10;16.30;50.80
24678;DHT22;12800;53.094;8.778;2023-05-18T12:52:36;16.50;50.70
24678;DHT22;12800;53.094;8.778;2023-05-18T12:55:01;16.50;50.30
24678;DHT22;12800;53.094;8.778;2023-05-18T12:57:29;16.60;50.40
24678;DHT22;12800;53.094;8.778;2023-05-18T12:59:57;16.60;50.10
24678;DHT22;12800;53.094;8.778;2023-05-18T13:02:37;16.60;49.80
24678;DHT22;12800;53.094;8.778;2023-05-18T13:05:07;16.70;49.90
24678;DHT22;12800;53.094;8.778;2023-05-18T13:07:44;16.80;49.90
24678;DHT22;12800;53.094;8.778;2023-05-18T13:10:12;16.90;49.40
24678;DHT22;12800;53.094;8.778;2023-05-18T13:12:42;16.90;48.90
24678;DHT22;12800;53.094;8.778;2023-05-18T13:15:13;17.00;48.90
24678;DHT22;12800;53.094;8.778;2023-05-18T13:20:19;17.00;48.70
24678;DHT22;12800;53.094;8.778;2023-05-18T13:22:44;17.10;48.80
24678;DHT22;12800;53.094;8.778;2023-05-18T13:25:10;17.10;48.70
24678;DHT22;12800;53.094;8.778;2023-05-18T13:27:36;17.10;48.50
24678;DHT22;12800;53.094;8.778;2023-05-18T13:30:02;17.20;48.70
24678;DHT22;12800;53.094;8.778;2023-05-18T13:32:28;17.30;48.60
24678;DHT22;12800;53.094;8.778;2023-05-18T13:34:53;17.40;49.30
24678;DHT22;12800;53.094;8.778;2023-05-18T13:37:19;17.50;48.80
24678;DHT22;12800;53.094;8.778;2023-05-18T13:39:45;17.60;48.40
24678;DHT22;12800;53.094;8.778;2023-05-18T13:42:11;17.80;48.20
24678;DHT22;12800;53.094;8.778;2023-05-18T13:44:37;18.00;48.00
24678;DHT22;12800;53.094;8.778;2023-05-18T13:47:03;18.10;47.40
24678;DHT22;12800;53.094;8.778;2023-05-18T13:49:29;18.10;47.70
24678;DHT22;12800;53.094;8.778;2023-05-18T13:51:54;18.30;47.40
24678;DHT22;12800;53.094;8.778;2023-05-18T13:54:20;18.30;47.10
24678;DHT22;12800;53.094;8.778;2023-05-18T13:56:46;18.40;46.80
24678;DHT22;12800;53.094;8.778;2023-05-18T13:59:12;18.40;46.80
24678;DHT22;12800;53.094;8.778;2023-05-18T14:01:40;18.50;46.40
24678;DHT22;12800;53.094;8.778;2023-05-18T14:04:06;18.50;46.30
24678;DHT22;12800;53.094;8.778;2023-05-18T14:06:32;18.50;46.40
24678;DHT22;12800;53.094;8.778;2023-05-18T14:08:57;18.60;46.50
24678;DHT22;12800;53.094;8.778;2023-05-18T14:11:23;18.80;46.80
24678;DHT22;12800;53.094;8.778;2023-05-18T14:13:49;18.90;46.50
24678;DHT22;12800;53.094;8.778;2023-05-18T14:16:14;19.00;46.20
24678;DHT22;12800;53.094;8.778;2023-05-18T14:18:40;19.10;46.00
24678;DHT22;12800;53.094;8.778;2023-05-18T14:21:05;19.10;45.80
24678;DHT22;12800;53.094;8.778;2023-05-18T14:23:31;19.10;45.90
24678;DHT22;12800;53.094;8.778;2023-05-18T14:25:57;19.30;45.90
24678;DHT22;12800;53.094;8.778;2023-05-18T14:28:22;19.30;45.30
24678;DHT22;12800;53.094;8.778;2023-05-18T14:30:48;19.30;45.20
24678;DHT22;12800;53.094;8.778;2023-05-18T14:33:13;19.40;45.40
24678;DHT22;12800;53.094;8.778;2023-05-18T14:35:39;19.40;45.00
24678;DHT22;12800;53.094;8.778;2023-05-18T14:38:05;19.40;45.00
24678;DHT22;12800;53.094;8.778;2023-05-18T14:40:31;19.60;45.00
24678;DHT22;12800;53.094;8.778;2023-05-18T14:42:56;19.70;44.70
24678;DHT22;12800;53.094;8.778;2023-05-18T14:45:22;19.80;44.20
24678;DHT22;12800;53.094;8.778;2023-05-18T14:47:47;19.90;44.30
24678;DHT22;12800;53.094;8.778;2023-05-18T14:50:13;20.10;44.10
24678;DHT22;12800;53.094;8.778;2023-05-18T14:52:39;20.20;43.60
24678;DHT22;12800;53.094;8.778;2023-05-18T14:55:05;20.30;43.70
24678;DHT22;12800;53.094;8.778;2023-05-18T14:57:31;20.40;43.30
24678;DHT22;12800;53.094;8.778;2023-05-18T14:59:57;20.40;42.90
24678;DHT22;12800;53.094;8.778;2023-05-18T15:02:23;20.40;42.50
24678;DHT22;12800;53.094;8.778;2023-05-18T15:04:48;20.50;42.60
24678;DHT22;12800;53.094;8.778;2023-05-18T15:07:14;20.60;42.60
24678;DHT22;12800;53.094;8.778;2023-05-18T15:09:40;20.70;42.20
24678;DHT22;12800;53.094;8.778;2023-05-18T15:12:05;20.80;42.20
24678;DHT22;12800;53.094;8.778;2023-05-18T15:14:31;20.80;41.80
24678;DHT22;12800;53.094;8.778;2023-05-18T15:16:57;20.80;42.10
24678;DHT22;12800;53.094;8.778;2023-05-18T15:19:23;20.90;41.50
24678;DHT22;12800;53.094;8.778;2023-05-18T15:21:48;20.80;41.20
24678;DHT22;12800;53.094;8.778;2023-05-18T15:24:14;20.70;41.20
24678;DHT22;12800;53.094;8.778;2023-05-18T15:26:40;20.80;41.30
24678;DHT22;12800;53.094;8.778;2023-05-18T15:29:06;20.80;41.30
24678;DHT22;12800;53.094;8.778;2023-05-18T15:31:32;20.90;41.40
24678;DHT22;12800;53.094;8.778;2023-05-18T15:33:58;20.90;41.40
24678;DHT22;12800;53.094;8.778;2023-05-18T15:36:23;21.00;41.00
24678;DHT22;12800;53.094;8.778;2023-05-18T15:38:49;21.00;41.00
24678;DHT22;12800;53.094;8.778;2023-05-18T15:41:15;21.20;41.00
24678;DHT22;12800;53.094;8.778;2023-05-18T15:43:41;21.30;40.60
24678;DHT22;12800;53.094;8.778;2023-05-18T15:46:07;21.50;40.30
24678;DHT22;12800;53.094;8.778;2023-05-18T15:48:33;21.50;40.30
24678;DHT22;12800;53.094;8.778;2023-05-18T15:50:59;21.60;40.20
24678;DHT22;12800;53.094;8.778;2023-05-18T15:53:24;21.60;40.00
24678;DHT22;12800;53.094;8.778;2023-05-18T15:55:50;21.60;40.20
24678;DHT22;12800;53.094;8.778;2023-05-18T15:58:18;21.70;40.20
24678;DHT22;12800;53.094;8.778;2023-05-18T16:00:44;21.70;39.80
24678;DHT22;12800;53.094;8.778;2023-05-18T16:03:10;21.70;40.00